sensor_id;sensor_type;location;lat;lon;timestamp;temperature;humidity
13892;DHT22;7016;48.172;8.058;2024-02-23T00:01:51;7.70;99.90
13892;DHT22;7016;48.172;8.058;2024-02-23T00:04:37;7.80;99.90
13892;DHT22;7016;48.172;8.058;2024-02-23T00:07:23;7.70;99.90
13892;DHT22;7016;48.172;8.058;2024-02-23T00:10:10;7.80;99.90
13892;DHT22;7016;48.172;8.058;2024-02-23T00:12:57;7.70;99.90
13892;DHT22;7016;48.172;8.058;2024-02-23T00:15:43;7.80;99.90
13892;DHT22;7016;48.172;8.058;2024-02-23T00:18:29;7.80;99.90
13892;DHT22;7016;48.172;8.058;2024-02-23T00:21:16;7.80;99.90
13892;DHT22;7016;48.172;8.058;2024-02-23T00:24:03;7.90;99.90
13892;DHT22;7016;48.172;8.058;2024-02-23T00:26:49;8.10;99.90
13892;DHT22;7016;48.172;8.058;2024-02-23T00:29:39;8.20;99.90
13892;DHT22;7016;48.172;8.058;2024-02-23T00:32:27;8.30;99.90
13892;DHT22;7016;48.172;8.058;2024-02-23T00:35:13;8.10;99.90
13892;DHT22;7016;48.172;8.058;2024-02-23T00:37:59;8.10;99.90
13892;DHT22;7016;48.172;8.058;2024-02-23T00:40:45;8.00;99.90
13892;DHT22;7016;48.172;8.058;2024-02-23T00:43:38;7.90;99.90
13892;DHT22;7016;48.172;8.058;2024-02-23T00:46:24;7.60;99.90
13892;DHT22;7016;48.172;8.058;2024-02-23T00:49:11;7.60;99.90
13892;DHT22;7016;48.172;8.058;2024-02-23T00:52:01;7.40;99.90
13892;DHT22;7016;48.172;8.058;2024-02-23T00:54:51;7.60;99.90
13892;DHT22;7016;48.172;8.058;2024-02-23T00:57:38;7.40;99.90
13892;DHT22;7016;48.172;8.058;2024-02-23T01:00:24;7.60;99.90
13892;DHT22;7016;48.172;8.058;2024-02-23T01:03:10;7.70;99.90
13892;DHT22;7016;48.172;8.058;2024-02-23T01:05:56;7.60;99.90
13892;DHT22;7016;48.172;8.058;2024-02-23T01:08:43;7.60;99.90
13892;DHT22;7016;48.172;8.058;2024-02-23T01:11:29;7.60;99.90
13892;DHT22;7016;48.172;8.058;2024-02-23T01:14:15;7.40;99.90
13892;DHT22;7016;48.172;8.058;2024-02-23T01:17:02;7.60;99.90
13892;DHT22;7016;48.172;8.058;2024-02-23T01:19:48;7.50;99.90
13892;DHT22;7016;48.172;8.058;2024-02-23T01:22:35;7.20;99.90
13892;DHT22;7016;48.172;8.058;2024-02-23T01:25:21;7.40;99.90
13892;DHT22;7016;48.172;8.058;2024-02-23T01:28:08;7.20;99.90
13892;DHT22;7016;48.172;8.058;2024-02-23T01:30:55;7.40;99.90
13892;DHT22;7016;48.172;8.058;2024-02-23T01:33:41;7.50;99.90
13892;DHT22;7016;48.172;8.058;2024-02-23T01:36:27;7.40;99.90
13892;DHT22;7016;48.172;8.058;2024-02-23T01:39:13;7.40;99.90
13892;DHT22;7016;48.172;8.058;2024-02-23T01:41:59;7.20;99.90
13892;DHT22;7016;48.172;8.058;2024-02-23T01:44:45;7.10;99.90
13892;DHT22;7016;48.172;8.058;2024-02-23T01:47:32;7.10;99.90
13892;DHT22;7016;48.172;8.058;2024-02-23T01:50:18;7.10;99.90
13892;DHT22;7016;48.172;8.058;2024-02-23T01:53:05;6.90;99.90
13892;DHT22;7016;48.172;8.058;2024-02-23T01:55:52;7.00;99.90
13892;DHT22;7016;48.172;8.058;2024-02-23T01:58:39;7.00;99.90
13892;DHT22;7016;48.172;8.058;2024-02-23T02:01:26;7.00;99.90
13892;DHT22;7016;48.172;8.058;2024-02-23T02:04:12;7.10;99.90
13892;DHT22;7016;48.172;8.058;2024-02-23T02:07:13;7.20;99.90
13892;DHT22;7016;48.172;8.058;2024-02-23T02:10:01;7.30;99.90
13892;DHT22;7016;48.172;8.058;2024-02-23T02:12:49;7.40;99.90
13892;DHT22;7016;48.172;8.058;2024-02-23T02:15:35;7.40;99.90
13892;DHT22;7016;48.172;8.058;2024-02-23T02:18:22;7.40;99.90
13892;DHT22;7016;48.172;8.058;2024-02-23T02:21:08;7.50;99.90
13892;DHT22;7016;48.172;8.058;2024-02-23T02:23:54;7.60;99.90
13892;DHT22;7016;48.172;8.058;2024-02-23T02:26:40;7.60;99.90
13892;DHT22;7016;48.172;8.058;2024-02-23T02:29:28;7.50;99.90
13892;DHT22;7016;48.172;8.058;2024-02-23T02:32:14;7.50;99.90
13892;DHT22;7016;48.172;8.058;2024-02-23T02:35:01;7.40;99.90
13892;DHT22;7016;48.172;8.058;2024-02-23T02:37:47;7.40;99.90
13892;DHT22;7016;48.172;8.058;2024-02-23T02:40:34;7.40;99.90
13892;DHT22;7016;48.172;8.058;2024-02-23T02:43:20;7.40;99.90
13892;DHT22;7016;48.172;8.058;2024-02-23T02:46:06;7.40;99.90
13892;DHT22;7016;48.172;8.058;2024-02-23T02:48:52;7.40;99.90
13892;DHT22;7016;48.172;8.058;2024-02-23T02:51:39;7.30;99.90
13892;DHT22;7016;48.172;8.058;2024-02-23T02:54:25;7.40;99.90
13892;DHT22;7016;48.172;8.058;2024-02-23T02:57:14;7.40;99.90
13892;DHT22;7016;48.172;8.058;2024-02-23T03:00:00;7.40;99.90
13892;DHT22;7016;48.172;8.058;2024-02-23T03:02:47;7.50;99.90
13892;DHT22;7016;48.172;8.058;2024-02-23T03:05:38;7.30;99.90
13892;DHT22;7016;48.172;8.058;2024-02-23T03:08:31;7.30;99.90
13892;DHT22;7016;48.172;8.058;2024-02-23T03:11:17;7.10;99.90
13892;DHT22;7016;48.172;8.058;2024-02-23T03:14:03;7.20;99.90
13892;DHT22;7016;48.172;8.058;2024-02-23T03:16:50;7.20;99.90
13892;DHT22;7016;48.172;8.058;2024-02-23T03:19:36;7.20;99.90
13892;DHT22;7016;48.172;8.058;2024-02-23T03:22:23;7.30;99.90
13892;DHT22;7016;48.172;8.058;2024-02-23T03:25:12;6.90;99.90
13892;DHT22;7016;48.172;8.058;2024-02-23T03:28:00;6.90;99.90
13892;DHT22;7016;48.172;8.058;2024-02-23T03:30:47;7.00;99.90
13892;DHT22;7016;48.172;8.058;2024-02-23T03:33:33;7.10;99.90
13892;DHT22;7016;48.172;8.058;2024-02-23T03:36:19;7.30;99.90
13892;DHT22;7016;48.172;8.058;2024-02-23T03:39:05;7.30;99.90
13892;DHT22;7016;48.172;8.058;2024-02-23T03:41:51;7.30;99.90
13892;DHT22;7016;48.172;8.058;2024-02-23T03:44:37;7.40;99.90
13892;DHT22;7016;48.172;8.058;2024-02-23T03:47:24;7.20;99.90
13892;DHT22;7016;48.172;8.058;2024-02-23T03:50:10;7.10;99.90
13892;DHT22;7016;48.172;8.058;2024-02-23T03:52:57;7.10;99.90
13892;DHT22;7016;48.172;8.058;2024-02-23T03:55:43;7.20;99.90
13892;DHT22;7016;48.172;8.058;2024-02-23T03:58:30;7.10;99.90
13892;DHT22;7016;48.172;8.058;2024-02-23T04:01:19;7.30;99.90
13892;DHT22;7016;48.172;8.058;2024-02-23T04:04:06;7.30;99.90
13892;DHT22;7016;48.172;8.058;2024-02-23T04:06:52;7.00;99.90
13892;DHT22;7016;48.172;8.058;2024-02-23T04:09:38;7.10;99.90
13892;DHT22;7016;48.172;8.058;2024-02-23T04:12:24;7.30;99.90
13892;DHT22;7016;48.172;8.058;2024-02-23T04:15:11;7.00;99.90
13892;DHT22;7016;48.172;8.058;2024-02-23T04:17:57;6.90;99.90
13892;DHT22;7016;48.172;8.058;2024-02-23T04:20:43;7.00;99.90
13892;DHT22;7016;48.172;8.058;2024-02-23T04:23:30;7.10;99.90
13892;DHT22;7016;48.172;8.058;2024-02-23T04:26:16;7.00;99.90
13892;DHT22;7016;48.172;8.058;2024-02-23T04:29:02;6.90;99.90
13892;DHT22;7016;48.172;8.058;2024-02-23T04:31:48;7.00;99.90
13892;DHT22;7016;48.172;8.058;2024-02-23T04:34:35;7.00;99.90
13892;DHT22;7016;48.172;8.058;2024-02-23T04:37:21;7.10;99.90
13892;DHT22;7016;48.172;8.058;2024-02-23T04:40:07;7.20;99.90
13892;DHT22;7016;48.172;8.058;2024-02-23T04:42:54;7.10;99.90
13892;DHT22;7016;48.172;8.058;2024-02-23T04:45:40;7.20;99.90
13892;DHT22;7016;48.172;8.058;2024-02-23T04:48:26;7.30;99.90
13892;DHT22;7016;48.172;8.058;2024-02-23T04:51:12;7.30;99.90
13892;DHT22;7016;48.172;8.058;2024-02-23T04:53:59;7.10;99.90
13892;DHT22;7016;48.172;8.058;2024-02-23T04:56:51;7.00;99.90
13892;DHT22;7016;48.172;8.058;2024-02-23T04:59:37;6.80;99.90
13892;DHT22;7016;48.172;8.058;2024-02-23T05:02:25;6.70;99.90
13892;DHT22;7016;48.172;8.058;2024-02-23T05:05:15;6.90;99.90
13892;DHT22;7016;48.172;8.058;2024-02-23T05:08:01;7.00;99.90
13892;DHT22;7016;48.172;8.058;2024-02-23T05:10:47;7.00;99.90
13892;DHT22;7016;48.172;8.058;2024-02-23T05:13:33;6.90;99.90
13892;DHT22;7016;48.172;8.058;2024-02-23T05:16:23;6.90;99.90
13892;DHT22;7016;48.172;8.058;2024-02-23T05:19:09;7.00;99.90
13892;DHT22;7016;48.172;8.058;2024-02-23T05:21:55;7.00;99.90
13892;DHT22;7016;48.172;8.058;2024-02-23T05:24:41;7.10;99.90
13892;DHT22;7016;48.172;8.058;2024-02-23T05:27:27;7.00;99.90
13892;DHT22;7016;48.172;8.058;2024-02-23T05:30:13;6.90;99.90
13892;DHT22;7016;48.172;8.058;2024-02-23T05:33:00;7.00;99.90
13892;DHT22;7016;48.172;8.058;2024-02-23T05:38:35;7.20;99.90
13892;DHT22;7016;48.172;8.058;2024-02-23T05:41:21;7.20;99.90
13892;DHT22;7016;48.172;8.058;2024-02-23T05:44:08;7.00;99.90
13892;DHT22;7016;48.172;8.058;2024-02-23T05:46:54;7.20;99.90
13892;DHT22;7016;48.172;8.058;2024-02-23T05:49:40;7.20;99.90
13892;DHT22;7016;48.172;8.058;2024-02-23T05:52:27;7.20;99.90
13892;DHT22;7016;48.172;8.058;2024-02-23T05:55:16;7.20;99.90
13892;DHT22;7016;48.172;8.058;2024-02-23T05:58:02;7.30;99.90
13892;DHT22;7016;48.172;8.058;2024-02-23T06:00:49;7.30;99.90
13892;DHT22;7016;48.172;8.058;2024-02-23T06:03:37;7.20;99.90
13892;DHT22;7016;48.172;8.058;2024-02-23T06:06:23;7.10;99.90
13892;DHT22;7016;48.172;8.058;2024-02-23T06:09:10;7.20;99.90
13892;DHT22;7016;48.172;8.058;2024-02-23T06:11:57;7.10;99.90
13892;DHT22;7016;48.172;8.058;2024-02-23T06:14:43;7.10;99.90
13892;DHT22;7016;48.172;8.058;2024-02-23T06:17:30;6.90;99.90
13892;DHT22;7016;48.172;8.058;2024-02-23T06:20:16;6.80;99.90
13892;DHT22;7016;48.172;8.058;2024-02-23T06:23:03;3.70;99.90
13892;DHT22;7016;48.172;8.058;2024-02-23T06:28:36;6.70;99.90
13892;DHT22;7016;48.172;8.058;2024-02-23T06:31:23;6.60;99.90
13892;DHT22;7016;48.172;8.058;2024-02-23T06:34:09;6.60;99.90
13892;DHT22;7016;48.172;8.058;2024-02-23T06:36:55;6.50;99.90
13892;DHT22;7016;48.172;8.058;2024-02-23T06:39:42;6.50;99.90
13892;DHT22;7016;48.172;8.058;2024-02-23T06:42:28;6.50;99.90
13892;DHT22;7016;48.172;8.058;2024-02-23T06:45:14;6.60;99.90
13892;DHT22;7016;48.172;8.058;2024-02-23T06:48:04;6.70;99.90
13892;DHT22;7016;48.172;8.058;2024-02-23T06:50:51;6.70;99.90
13892;DHT22;7016;48.172;8.058;2024-02-23T06:53:37;6.70;99.90
13892;DHT22;7016;48.172;8.058;2024-02-23T06:56:24;6.70;99.90
13892;DHT22;7016;48.172;8.058;2024-02-23T06:59:10;6.80;99.90
13892;DHT22;7016;48.172;8.058;2024-02-23T07:01:56;6.60;99.90
13892;DHT22;7016;48.172;8.058;2024-02-23T07:04:42;6.60;99.90
13892;DHT22;7016;48.172;8.058;2024-02-23T07:07:28;6.50;99.90
13892;DHT22;7016;48.172;8.058;2024-02-23T07:10:16;6.50;99.90
13892;DHT22;7016;48.172;8.058;2024-02-23T07:13:04;6.50;99.90
13892;DHT22;7016;48.172;8.058;2024-02-23T07:15:50;6.40;99.90
13892;DHT22;7016;48.172;8.058;2024-02-23T07:18:36;6.40;99.90
13892;DHT22;7016;48.172;8.058;2024-02-23T07:21:22;6.50;99.90
13892;DHT22;7016;48.172;8.058;2024-02-23T07:24:09;6.50;99.90
13892;DHT22;7016;48.172;8.058;2024-02-23T07:26:55;6.30;99.90
13892;DHT22;7016;48.172;8.058;2024-02-23T07:29:41;6.30;99.90
13892;DHT22;7016;48.172;8.058;2024-02-23T07:32:27;6.40;99.90
13892;DHT22;7016;48.172;8.058;2024-02-23T07:35:15;6.60;99.90
13892;DHT22;7016;48.172;8.058;2024-02-23T07:38:05;6.70;99.90
13892;DHT22;7016;48.172;8.058;2024-02-23T07:40:52;6.90;99.90
13892;DHT22;7016;48.172;8.058;2024-02-23T07:43:38;6.80;99.90
13892;DHT22;7016;48.172;8.058;2024-02-23T07:46:25;6.70;99.90
13892;DHT22;7016;48.172;8.058;2024-02-23T07:49:11;6.70;99.90
13892;DHT22;7016;48.172;8.058;2024-02-23T07:51:57;6.70;99.90
13892;DHT22;7016;48.172;8.058;2024-02-23T07:54:43;6.80;99.90
13892;DHT22;7016;48.172;8.058;2024-02-23T07:57:30;6.80;99.90
13892;DHT22;7016;48.172;8.058;2024-02-23T08:00:17;6.80;99.90
13892;DHT22;7016;48.172;8.058;2024-02-23T08:03:04;6.80;99.90
13892;DHT22;7016;48.172;8.058;2024-02-23T08:05:50;6.70;99.90
13892;DHT22;7016;48.172;8.058;2024-02-23T08:08:36;6.70;99.90
13892;DHT22;7016;48.172;8.058;2024-02-23T08:11:23;6.60;99.90
13892;DHT22;7016;48.172;8.058;2024-02-23T08:14:10;6.40;99.90
13892;DHT22;7016;48.172;8.058;2024-02-23T08:16:56;6.60;99.90
13892;DHT22;7016;48.172;8.058;2024-02-23T08:19:42;6.70;99.90
13892;DHT22;7016;48.172;8.058;2024-02-23T08:22:28;6.70;99.90
13892;DHT22;7016;48.172;8.058;2024-02-23T08:25:14;6.80;99.90
13892;DHT22;7016;48.172;8.058;2024-02-23T08:28:01;6.90;99.90
13892;DHT22;7016;48.172;8.058;2024-02-23T08:30:49;7.00;99.90
13892;DHT22;7016;48.172;8.058;2024-02-23T08:33:36;6.70;99.90
13892;DHT22;7016;48.172;8.058;2024-02-23T08:36:22;6.70;99.90
13892;DHT22;7016;48.172;8.058;2024-02-23T08:39:08;6.70;99.90
13892;DHT22;7016;48.172;8.058;2024-02-23T08:41:55;6.80;99.90
13892;DHT22;7016;48.172;8.058;2024-02-23T08:44:41;6.70;99.90
13892;DHT22;7016;48.172;8.058;2024-02-23T08:47:27;6.70;99.90
13892;DHT22;7016;48.172;8.058;2024-02-23T08:50:21;6.80;99.90
13892;DHT22;7016;48.172;8.058;2024-02-23T08:53:10;6.90;99.90
13892;DHT22;7016;48.172;8.058;2024-02-23T08:55:56;6.90;99.90
13892;DHT22;7016;48.172;8.058;2024-02-23T08:58:43;6.90;99.90
13892;DHT22;7016;48.172;8.058;2024-02-23T09:01:29;6.90;99.90
13892;DHT22;7016;48.172;8.058;2024-02-23T09:04:15;7.00;99.90
13892;DHT22;7016;48.172;8.058;2024-02-23T09:07:03;7.30;99.90
13892;DHT22;7016;48.172;8.058;2024-02-23T09:09:49;7.40;99.90
13892;DHT22;7016;48.172;8.058;2024-02-23T09:12:35;7.50;99.90
13892;DHT22;7016;48.172;8.058;2024-02-23T09:15:22;7.40;99.90
13892;DHT22;7016;48.172;8.058;2024-02-23T09:18:08;7.50;99.90
13892;DHT22;7016;48.172;8.058;2024-02-23T09:20:54;7.40;99.90
13892;DHT22;7016;48.172;8.058;2024-02-23T09:23:40;7.50;99.90
13892;DHT22;7016;48.172;8.058;2024-02-23T09:26:29;7.20;99.90
13892;DHT22;7016;48.172;8.058;2024-02-23T09:29:15;7.30;99.90
13892;DHT22;7016;48.172;8.058;2024-02-23T09:32:03;7.20;99.90
13892;DHT22;7016;48.172;8.058;2024-02-23T09:34:51;7.40;99.90
13892;DHT22;7016;48.172;8.058;2024-02-23T09:37:37;7.60;99.90
13892;DHT22;7016;48.172;8.058;2024-02-23T09:40:23;7.80;99.90
13892;DHT22;7016;48.172;8.058;2024-02-23T09:43:10;7.50;99.90
13892;DHT22;7016;48.172;8.058;2024-02-23T09:45:57;7.70;99.90
13892;DHT22;7016;48.172;8.058;2024-02-23T09:48:45;7.70;99.90
13892;DHT22;7016;48.172;8.058;2024-02-23T09:51:32;7.90;99.90
13892;DHT22;7016;48.172;8.058;2024-02-23T09:54:19;7.90;99.90
13892;DHT22;7016;48.172;8.058;2024-02-23T09:57:09;7.80;99.90
13892;DHT22;7016;48.172;8.058;2024-02-23T09:59:55;7.80;99.90
13892;DHT22;7016;48.172;8.058;2024-02-23T10:02:42;7.80;99.90
13892;DHT22;7016;48.172;8.058;2024-02-23T10:05:32;8.10;99.90
13892;DHT22;7016;48.172;8.058;2024-02-23T10:08:20;8.30;99.90
13892;DHT22;7016;48.172;8.058;2024-02-23T10:11:08;8.40;99.90
13892;DHT22;7016;48.172;8.058;2024-02-23T10:13:54;8.30;99.90
13892;DHT22;7016;48.172;8.058;2024-02-23T10:16:40;8.40;99.90
13892;DHT22;7016;48.172;8.058;2024-02-23T10:19:26;8.50;99.90
13892;DHT22;7016;48.172;8.058;2024-02-23T10:22:14;8.60;99.90
13892;DHT22;7016;48.172;8.058;2024-02-23T10:25:01;8.70;99.90
13892;DHT22;7016;48.172;8.058;2024-02-23T10:27:47;8.90;99.90
13892;DHT22;7016;48.172;8.058;2024-02-23T10:30:33;8.90;99.90
13892;DHT22;7016;48.172;8.058;2024-02-23T10:33:23;8.80;99.90
13892;DHT22;7016;48.172;8.058;2024-02-23T10:36:10;9.00;99.90
13892;DHT22;7016;48.172;8.058;2024-02-23T10:39:02;8.90;99.90
13892;DHT22;7016;48.172;8.058;2024-02-23T10:41:57;9.00;99.90
13892;DHT22;7016;48.172;8.058;2024-02-23T10:44:47;9.10;99.90
13892;DHT22;7016;48.172;8.058;2024-02-23T10:47:33;9.00;99.90
13892;DHT22;7016;48.172;8.058;2024-02-23T10:50:20;9.00;99.90
13892;DHT22;7016;48.172;8.058;2024-02-23T10:53:10;9.10;99.90
13892;DHT22;7016;48.172;8.058;2024-02-23T10:55:57;8.90;99.90
13892;DHT22;7016;48.172;8.058;2024-02-23T10:58:46;8.90;99.90
13892;DHT22;7016;48.172;8.058;2024-02-23T11:01:33;8.80;99.90
13892;DHT22;7016;48.172;8.058;2024-02-23T11:04:21;9.10;99.90
13892;DHT22;7016;48.172;8.058;2024-02-23T11:07:13;8.90;99.90
13892;DHT22;7016;48.172;8.058;2024-02-23T11:10:04;9.00;99.90
13892;DHT22;7016;48.172;8.058;2024-02-23T11:12:58;9.10;99.90
13892;DHT22;7016;48.172;8.058;2024-02-23T11:15:48;9.00;99.90
13892;DHT22;7016;48.172;8.058;2024-02-23T11:18:35;9.10;99.90
13892;DHT22;7016;48.172;8.058;2024-02-23T11:21:22;9.40;99.90
13892;DHT22;7016;48.172;8.058;2024-02-23T11:24:15;9.20;99.90
13892;DHT22;7016;48.172;8.058;2024-02-23T11:27:02;9.20;99.90
13892;DHT22;7016;48.172;8.058;2024-02-23T11:30:06;9.20;99.90
13892;DHT22;7016;48.172;8.058;2024-02-23T11:32:59;9.30;99.90
13892;DHT22;7016;48.172;8.058;2024-02-23T11:35:48;9.30;99.90
13892;DHT22;7016;48.172;8.058;2024-02-23T11:38:36;9.20;99.90
13892;DHT22;7016;48.172;8.058;2024-02-23T11:41:27;8.90;99.90
13892;DHT22;7016;48.172;8.058;2024-02-23T11:44:22;8.80;99.90
13892;DHT22;7016;48.172;8.058;2024-02-23T11:47:08;8.80;99.90
13892;DHT22;7016;48.172;8.058;2024-02-23T11:49:55;8.90;99.90
13892;DHT22;7016;48.172;8.058;2024-02-23T11:52:41;8.90;99.90
13892;DHT22;7016;48.172;8.058;2024-02-23T11:55:28;8.80;99.90
13892;DHT22;7016;48.172;8.058;2024-02-23T11:58:15;8.80;99.90
13892;DHT22;7016;48.172;8.058;2024-02-23T12:01:02;9.00;99.90
13892;DHT22;7016;48.172;8.058;2024-02-23T12:03:49;9.10;99.90
13892;DHT22;7016;48.172;8.058;2024-02-23T12:06:35;9.10;99.90
13892;DHT22;7016;48.172;8.058;2024-02-23T12:09:21;9.20;99.90
13892;DHT22;7016;48.172;8.058;2024-02-23T12:12:08;9.90;99.90
13892;DHT22;7016;48.172;8.058;2024-02-23T12:14:55;9.20;99.90
13892;DHT22;7016;48.172;8.058;2024-02-23T12:17:48;9.50;99.90
13892;DHT22;7016;48.172;8.058;2024-02-23T12:20:34;9.50;99.90
13892;DHT22;7016;48.172;8.058;2024-02-23T12:23:21;9.40;99.90
13892;DHT22;7016;48.172;8.058;2024-02-23T12:26:08;9.10;99.90
13892;DHT22;7016;48.172;8.058;2024-02-23T12:29:00;9.00;99.90
13892;DHT22;7016;48.172;8.058;2024-02-23T12:31:47;9.20;99.90
13892;DHT22;7016;48.172;8.058;2024-02-23T12:34:34;9.20;99.90
13892;DHT22;7016;48.172;8.058;2024-02-23T12:37:21;9.30;99.90
13892;DHT22;7016;48.172;8.058;2024-02-23T12:40:09;9.40;99.90
13892;DHT22;7016;48.172;8.058;2024-02-23T12:42:55;9.20;99.90
13892;DHT22;7016;48.172;8.058;2024-02-23T12:45:42;9.20;99.90
13892;DHT22;7016;48.172;8.058;2024-02-23T12:48:30;9.40;99.90
13892;DHT22;7016;48.172;8.058;2024-02-23T12:51:17;9.30;99.90
13892;DHT22;7016;48.172;8.058;2024-02-23T12:54:03;9.20;99.90
13892;DHT22;7016;48.172;8.058;2024-02-23T12:56:50;9.50;99.90
13892;DHT22;7016;48.172;8.058;2024-02-23T12:59:36;9.40;99.90
13892;DHT22;7016;48.172;8.058;2024-02-23T13:02:23;9.00;99.90
13892;DHT22;7016;48.172;8.058;2024-02-23T13:05:09;9.30;99.90
13892;DHT22;7016;48.172;8.058;2024-02-23T13:07:55;9.20;99.90
13892;DHT22;7016;48.172;8.058;2024-02-23T13:10:42;9.30;99.90
13892;DHT22;7016;48.172;8.058;2024-02-23T13:13:28;9.50;99.90
13892;DHT22;7016;48.172;8.058;2024-02-23T13:16:15;10.00;99.90
13892;DHT22;7016;48.172;8.058;2024-02-23T13:19:03;9.90;99.90
13892;DHT22;7016;48.172;8.058;2024-02-23T13:21:51;9.60;99.90
13892;DHT22;7016;48.172;8.058;2024-02-23T13:24:38;9.70;99.90
13892;DHT22;7016;48.172;8.058;2024-02-23T13:27:26;9.40;99.90
13892;DHT22;7016;48.172;8.058;2024-02-23T13:30:12;9.50;99.90
13892;DHT22;7016;48.172;8.058;2024-02-23T13:32:59;9.50;99.90
13892;DHT22;7016;48.172;8.058;2024-02-23T13:35:46;9.60;99.90
13892;DHT22;7016;48.172;8.058;2024-02-23T13:38:40;9.60;99.90
13892;DHT22;7016;48.172;8.058;2024-02-23T13:41:28;9.50;99.90
13892;DHT22;7016;48.172;8.058;2024-02-23T13:44:14;9.60;99.90
13892;DHT22;7016;48.172;8.058;2024-02-23T13:47:01;9.60;99.90
13892;DHT22;7016;48.172;8.058;2024-02-23T13:49:47;9.70;99.90
13892;DHT22;7016;48.172;8.058;2024-02-23T13:52:33;9.70;99.90
13892;DHT22;7016;48.172;8.058;2024-02-23T13:55:22;9.70;99.90
13892;DHT22;7016;48.172;8.058;2024-02-23T13:58:08;9.80;99.90
13892;DHT22;7016;48.172;8.058;2024-02-23T14:00:54;9.80;99.90
13892;DHT22;7016;48.172;8.058;2024-02-23T14:03:40;9.80;99.90
13892;DHT22;7016;48.172;8.058;2024-02-23T14:06:27;9.80;99.90
13892;DHT22;7016;48.172;8.058;2024-02-23T14:09:13;9.80;99.90
13892;DHT22;7016;48.172;8.058;2024-02-23T14:11:59;10.00;99.90
13892;DHT22;7016;48.172;8.058;2024-02-23T14:14:45;10.00;99.90
13892;DHT22;7016;48.172;8.058;2024-02-23T14:17:36;9.90;99.60
13892;DHT22;7016;48.172;8.058;2024-02-23T14:20:30;9.80;99.90
13892;DHT22;7016;48.172;8.058;2024-02-23T14:23:16;9.50;99.90
13892;DHT22;7016;48.172;8.058;2024-02-23T14:26:03;9.50;99.90
13892;DHT22;7016;48.172;8.058;2024-02-23T14:28:49;9.50;99.90
13892;DHT22;7016;48.172;8.058;2024-02-23T14:31:35;9.50;99.90
13892;DHT22;7016;48.172;8.058;2024-02-23T14:34:22;9.40;99.90
13892;DHT22;7016;48.172;8.058;2024-02-23T14:37:09;9.50;99.90
13892;DHT22;7016;48.172;8.058;2024-02-23T14:39:56;9.60;99.90
13892;DHT22;7016;48.172;8.058;2024-02-23T14:42:42;9.60;99.90
13892;DHT22;7016;48.172;8.058;2024-02-23T14:45:29;9.60;99.80
13892;DHT22;7016;48.172;8.058;2024-02-23T14:48:15;10.00;99.70
13892;DHT22;7016;48.172;8.058;2024-02-23T14:51:01;10.10;99.90
13892;DHT22;7016;48.172;8.058;2024-02-23T14:53:49;10.20;99.90
13892;DHT22;7016;48.172;8.058;2024-02-23T14:56:36;10.10;99.90
13892;DHT22;7016;48.172;8.058;2024-02-23T14:59:23;10.00;99.90
13892;DHT22;7016;48.172;8.058;2024-02-23T15:02:09;9.80;99.90
13892;DHT22;7016;48.172;8.058;2024-02-23T15:04:58;9.70;99.90
13892;DHT22;7016;48.172;8.058;2024-02-23T15:07:44;9.80;99.90
13892;DHT22;7016;48.172;8.058;2024-02-23T15:10:30;9.80;99.90
13892;DHT22;7016;48.172;8.058;2024-02-23T15:13:17;10.00;99.90
13892;DHT22;7016;48.172;8.058;2024-02-23T15:16:03;10.30;99.90
13892;DHT22;7016;48.172;8.058;2024-02-23T15:18:49;10.30;99.90
13892;DHT22;7016;48.172;8.058;2024-02-23T15:21:36;10.10;99.90
13892;DHT22;7016;48.172;8.058;2024-02-23T15:24:26;9.90;99.90
13892;DHT22;7016;48.172;8.058;2024-02-23T15:27:13;9.90;99.90
13892;DHT22;7016;48.172;8.058;2024-02-23T15:30:00;9.90;99.90
13892;DHT22;7016;48.172;8.058;2024-02-23T15:32:47;10.10;99.90
13892;DHT22;7016;48.172;8.058;2024-02-23T15:35:34;10.20;99.70
13892;DHT22;7016;48.172;8.058;2024-02-23T15:38:20;10.00;98.80
13892;DHT22;7016;48.172;8.058;2024-02-23T15:41:06;10.00;99.40
13892;DHT22;7016;48.172;8.058;2024-02-23T15:43:52;10.00;99.70
13892;DHT22;7016;48.172;8.058;2024-02-23T15:46:39;10.10;99.70
13892;DHT22;7016;48.172;8.058;2024-02-23T15:49:25;10.20;99.90
13892;DHT22;7016;48.172;8.058;2024-02-23T15:52:11;10.30;99.90
13892;DHT22;7016;48.172;8.058;2024-02-23T15:54:57;10.20;99.40
13892;DHT22;7016;48.172;8.058;2024-02-23T15:57:43;10.10;99.30
13892;DHT22;7016;48.172;8.058;2024-02-23T16:00:30;10.10;99.30
13892;DHT22;7016;48.172;8.058;2024-02-23T16:03:16;10.20;99.70
13892;DHT22;7016;48.172;8.058;2024-02-23T16:06:05;10.20;99.10
13892;DHT22;7016;48.172;8.058;2024-02-23T16:08:51;10.20;99.30
13892;DHT22;7016;48.172;8.058;2024-02-23T16:11:42;10.10;99.90
13892;DHT22;7016;48.172;8.058;2024-02-23T16:14:31;10.20;99.80
13892;DHT22;7016;48.172;8.058;2024-02-23T16:17:17;10.30;99.90
13892;DHT22;7016;48.172;8.058;2024-02-23T16:20:04;10.40;99.90
13892;DHT22;7016;48.172;8.058;2024-02-23T16:22:51;10.30;99.90
13892;DHT22;7016;48.172;8.058;2024-02-23T16:25:37;10.30;99.90
13892;DHT22;7016;48.172;8.058;2024-02-23T16:28:24;10.20;99.90
13892;DHT22;7016;48.172;8.058;2024-02-23T16:31:13;10.10;99.90
13892;DHT22;7016;48.172;8.058;2024-02-23T16:34:04;9.90;99.90
13892;DHT22;7016;48.172;8.058;2024-02-23T16:36:50;9.80;99.90
13892;DHT22;7016;48.172;8.058;2024-02-23T16:39:36;9.80;99.90
13892;DHT22;7016;48.172;8.058;2024-02-23T16:42:23;9.70;99.90
13892;DHT22;7016;48.172;8.058;2024-02-23T16:45:10;9.50;99.90
13892;DHT22;7016;48.172;8.058;2024-02-23T16:47:56;9.30;99.90
13892;DHT22;7016;48.172;8.058;2024-02-23T16:50:43;9.20;99.90
13892;DHT22;7016;48.172;8.058;2024-02-23T16:53:29;9.10;99.90
13892;DHT22;7016;48.172;8.058;2024-02-23T16:56:15;8.90;99.90
13892;DHT22;7016;48.172;8.058;2024-02-23T16:59:02;8.90;99.90
13892;DHT22;7016;48.172;8.058;2024-02-23T17:01:48;8.90;99.90
13892;DHT22;7016;48.172;8.058;2024-02-23T17:04:34;8.80;99.90
13892;DHT22;7016;48.172;8.058;2024-02-23T17:07:24;8.60;99.90
13892;DHT22;7016;48.172;8.058;2024-02-23T17:10:10;8.60;99.90
13892;DHT22;7016;48.172;8.058;2024-02-23T17:12:56;8.50;99.90
13892;DHT22;7016;48.172;8.058;2024-02-23T17:15:42;8.50;99.90
13892;DHT22;7016;48.172;8.058;2024-02-23T17:18:28;8.20;99.90
13892;DHT22;7016;48.172;8.058;2024-02-23T17:21:14;8.10;99.90
13892;DHT22;7016;48.172;8.058;2024-02-23T17:24:03;8.30;99.90
13892;DHT22;7016;48.172;8.058;2024-02-23T17:26:49;8.10;99.90
13892;DHT22;7016;48.172;8.058;2024-02-23T17:29:37;8.10;99.90
13892;DHT22;7016;48.172;8.058;2024-02-23T17:32:24;8.00;99.90
13892;DHT22;7016;48.172;8.058;2024-02-23T17:35:10;7.90;99.90
13892;DHT22;7016;48.172;8.058;2024-02-23T17:37:56;7.90;99.90
13892;DHT22;7016;48.172;8.058;2024-02-23T17:40:43;8.10;99.90
13892;DHT22;7016;48.172;8.058;2024-02-23T17:43:35;7.90;99.90
13892;DHT22;7016;48.172;8.058;2024-02-23T17:46:27;7.50;99.90
13892;DHT22;7016;48.172;8.058;2024-02-23T17:49:19;7.50;99.90
13892;DHT22;7016;48.172;8.058;2024-02-23T17:52:05;7.50;99.90
13892;DHT22;7016;48.172;8.058;2024-02-23T17:54:51;7.40;99.90
13892;DHT22;7016;48.172;8.058;2024-02-23T17:57:37;7.60;99.90
13892;DHT22;7016;48.172;8.058;2024-02-23T18:00:23;7.60;99.90
13892;DHT22;7016;48.172;8.058;2024-02-23T18:03:10;7.60;99.90
13892;DHT22;7016;48.172;8.058;2024-02-23T18:05:59;7.30;99.90
13892;DHT22;7016;48.172;8.058;2024-02-23T18:08:49;7.30;99.90
13892;DHT22;7016;48.172;8.058;2024-02-23T18:11:36;7.20;99.90
13892;DHT22;7016;48.172;8.058;2024-02-23T18:14:24;7.20;99.90